Baytown, Texas
Current Conditions -  °F | °C
As of 3:50 PM on Saturday 25 Oct 2014 (Local Time) from KEFD Reporting Station
Clear Clear  
Wind Chill: 81°   Ceiling: Unl
Heat Index: 81°   Visibility: 10mi
Dew Point: 54°   Wind: 5mph
Humidity: 39%   Direction: 110°ESE
Pressure: 30.1"   Gusts: NA
Location:  29.73°N, 95°W
Report Text: KEFD 252050Z 11004KT 10SM CLR 27/12 A3010
Loading
Personal Weather Stations






























Interactive Weather Map
Tropical Storm Tracking
New forecast layout! Learn more

10-Day Weather Forecast

Advertisements
Track Severe Weather on mobile